createdAt,value
2023-02-18T00:03:50.317Z,-2.18
2023-02-18T00:08:57.138Z,-2.12
2023-02-18T00:14:03.734Z,-2.04
2023-02-18T00:19:12.276Z,-1.96
2023-02-18T00:24:18.378Z,-1.76
2023-02-18T00:29:23.086Z,-1.56
2023-02-18T00:34:29.038Z,-1.39
2023-02-18T00:39:35.373Z,-1.28
2023-02-18T00:44:43.578Z,-1.12
2023-02-18T00:49:50.833Z,-0.99
2023-02-18T00:54:56.440Z,-0.87
2023-02-18T01:00:01.487Z,-0.84
2023-02-18T01:05:08.195Z,-0.74
2023-02-18T01:10:14.917Z,-0.63
2023-02-18T01:15:20.458Z,-0.54
2023-02-18T01:20:26.168Z,-0.42
2023-02-18T01:25:32.927Z,-0.35
2023-02-18T01:30:39.775Z,-0.29
2023-02-18T01:35:47.267Z,-0.22
2023-02-18T01:40:55.712Z,-0.14
2023-02-18T01:46:17.698Z,-0.11
2023-02-18T01:51:33.386Z,-0.09
2023-02-18T01:56:46.315Z,-0.11
2023-02-18T02:01:52.988Z,-0.13
2023-02-18T02:06:59.764Z,-0.11
2023-02-18T02:12:23.278Z,-0.09
2023-02-18T02:17:38.464Z,-0.08
2023-02-18T02:23:04.705Z,-0.03
2023-02-18T02:28:25.715Z,0.04
2023-02-18T02:33:48.776Z,0.09
2023-02-18T02:39:01.719Z,0.16
2023-02-18T02:44:24.011Z,0.25
2023-02-18T02:49:30.970Z,0.32
2023-02-18T02:54:37.926Z,0.41
2023-02-18T02:59:48.592Z,0.46
2023-02-18T03:05:04.005Z,0.55
2023-02-18T03:10:20.708Z,0.62
2023-02-18T03:15:43.599Z,0.67
2023-02-18T03:20:57.767Z,0.68
2023-02-18T03:26:05.378Z,0.63
2023-02-18T03:31:16.703Z,0.57
2023-02-18T03:36:23.964Z,0.55
2023-02-18T03:41:29.423Z,0.54
2023-02-18T03:46:37.410Z,0.56
2023-02-18T03:51:43.239Z,0.66
2023-02-18T03:56:49.123Z,0.85
2023-02-18T04:01:55.361Z,1.05
2023-02-18T04:07:00.507Z,1.20
2023-02-18T04:12:06.990Z,1.32
2023-02-18T04:17:12.067Z,1.42
2023-02-18T04:22:17.224Z,1.47
2023-02-18T04:27:22.310Z,1.51
2023-02-18T04:32:32.059Z,1.55
2023-02-18T04:37:39.728Z,1.60
2023-02-18T04:42:44.393Z,1.61
2023-02-18T04:47:50.340Z,1.63
2023-02-18T04:52:55.447Z,1.65
2023-02-18T04:58:00.489Z,1.69
2023-02-18T05:03:06.336Z,1.75
2023-02-18T05:08:12.471Z,1.79
2023-02-18T05:13:18.331Z,1.78
2023-02-18T05:18:23.066Z,1.77
2023-02-18T05:23:28.563Z,1.76
2023-02-18T05:28:33.858Z,1.72
2023-02-18T05:33:39.734Z,1.62
2023-02-18T05:38:45.048Z,1.63
2023-02-18T05:44:10.013Z,1.64
2023-02-18T05:49:15.061Z,1.62
2023-02-18T05:54:21.527Z,1.75
2023-02-18T05:59:27.258Z,1.84
2023-02-18T06:04:33.192Z,1.92
2023-02-18T06:09:39.319Z,1.93
2023-02-18T06:14:45.451Z,1.98
2023-02-18T06:19:52.542Z,2.04
2023-02-18T06:24:57.686Z,2.12
2023-02-18T06:30:02.101Z,2.13
2023-02-18T06:35:08.478Z,2.16
2023-02-18T06:40:14.940Z,2.23
2023-02-18T06:45:20.980Z,2.47
2023-02-18T06:50:27.058Z,2.69
2023-02-18T06:55:32.385Z,3.05
2023-02-18T07:00:37.617Z,3.22
2023-02-18T07:05:43.748Z,3.33
2023-02-18T07:10:49.339Z,3.42
2023-02-18T07:15:53.957Z,3.52
2023-02-18T07:21:00.889Z,3.62
2023-02-18T07:26:15.784Z,3.76
2023-02-18T07:31:21.174Z,3.79
2023-02-18T07:36:25.334Z,3.91
2023-02-18T07:41:30.457Z,3.93
2023-02-18T07:46:36.381Z,4.12
2023-02-18T07:51:41.671Z,4.22
2023-02-18T07:56:48.145Z,4.30
2023-02-18T08:01:52.925Z,4.23
2023-02-18T08:06:57.558Z,4.32
2023-02-18T08:12:02.215Z,4.27
2023-02-18T08:17:07.560Z,4.14
2023-02-18T08:22:12.125Z,4.09
2023-02-18T08:27:17.770Z,4.10
2023-02-18T08:32:22.493Z,4.00
2023-02-18T08:37:27.229Z,3.86
2023-02-18T08:42:31.871Z,3.71
2023-02-18T08:48:17.250Z,3.54
2023-02-18T08:53:05.645Z,3.40
2023-02-18T08:58:11.718Z,3.25
2023-02-18T09:03:17.183Z,3.10
2023-02-18T09:08:22.942Z,2.84
2023-02-18T09:13:32.147Z,2.69
2023-02-18T09:18:37.549Z,2.68
2023-02-18T09:23:42.561Z,2.40
2023-02-18T09:28:48.058Z,2.26
2023-02-18T09:33:53.528Z,2.19
2023-02-18T09:38:59.472Z,2.09
2023-02-18T09:44:23.382Z,1.93
2023-02-18T09:49:59.316Z,1.79
2023-02-18T09:55:21.811Z,1.77
2023-02-18T10:00:45.988Z,1.67
2023-02-18T10:05:58.951Z,1.61
2023-02-18T10:11:04.065Z,1.48
2023-02-18T10:16:09.428Z,1.35
2023-02-18T10:21:33.222Z,1.27
2023-02-18T10:26:41.978Z,1.31
2023-02-18T10:31:57.061Z,1.18
2023-02-18T10:37:27.655Z,1.06
2023-02-18T10:42:59.305Z,1.09
2023-02-18T10:48:29.357Z,0.91
2023-02-18T10:53:38.101Z,0.87
2023-02-18T10:58:48.730Z,0.86
2023-02-18T11:04:07.695Z,0.81
2023-02-18T11:09:28.626Z,0.78
2023-02-18T11:14:42.771Z,0.78
2023-02-18T11:20:01.137Z,0.69
2023-02-18T11:25:26.861Z,0.67
2023-02-18T11:30:42.492Z,0.66
2023-02-18T11:35:54.058Z,0.57
2023-02-18T11:41:11.546Z,0.46
2023-02-18T11:46:20.924Z,0.41
2023-02-18T11:51:31.130Z,0.44
2023-02-18T11:56:38.079Z,0.43
2023-02-18T12:01:54.702Z,0.41
2023-02-18T12:07:08.583Z,0.30
2023-02-18T12:12:21.306Z,0.35
2023-02-18T12:17:35.082Z,0.29
2023-02-18T12:22:44.619Z,0.21
2023-02-18T12:28:30.341Z,0.05
2023-02-18T12:34:01.957Z,-0.13
2023-02-18T12:39:36.193Z,-0.17
2023-02-18T12:44:47.038Z,-0.24
2023-02-18T12:50:01.402Z,-0.47
2023-02-18T12:55:28.989Z,-0.71
2023-02-18T13:00:45.416Z,-0.92
2023-02-18T13:06:15.012Z,-1.10
2023-02-18T13:11:45.035Z,-1.25
2023-02-18T13:17:00.252Z,-1.24
2023-02-18T13:22:08.280Z,-1.28
2023-02-18T13:27:13.453Z,-1.27
2023-02-18T13:32:40.232Z,-1.27
2023-02-18T13:38:04.168Z,-1.29
2023-02-18T13:43:24.679Z,-1.31
2023-02-18T13:48:32.092Z,-1.23
2023-02-18T13:53:45.086Z,-1.20
2023-02-18T13:58:57.566Z,-1.20
2023-02-18T14:04:03.355Z,-1.12
2023-02-18T14:09:14.297Z,-1.09
2023-02-18T14:14:39.348Z,-1.13
2023-02-18T14:19:44.179Z,-1.26
2023-02-18T14:25:10.558Z,-1.30
2023-02-18T14:30:26.749Z,-1.35
2023-02-18T14:35:59.417Z,-1.37
2023-02-18T14:41:14.047Z,-1.41
2023-02-18T14:46:48.373Z,-1.47
2023-02-18T14:51:57.600Z,-1.59
2023-02-18T14:57:18.467Z,-1.67
2023-02-18T15:02:33.069Z,-1.74
2023-02-18T15:07:38.809Z,-1.75
2023-02-18T15:12:45.109Z,-1.72
2023-02-18T15:17:51.968Z,-1.78
2023-02-18T15:22:57.571Z,-1.78
2023-02-18T15:28:02.661Z,-1.82
2023-02-18T15:33:16.851Z,-1.84
2023-02-18T15:38:23.010Z,-2.00
2023-02-18T15:43:29.776Z,-2.17
2023-02-18T15:48:45.797Z,-2.30
2023-02-18T15:53:54.899Z,-2.39
2023-02-18T15:59:31.767Z,-2.49
2023-02-18T16:04:42.741Z,-2.61
2023-02-18T16:09:47.577Z,-2.65
2023-02-18T16:14:52.582Z,-2.72
2023-02-18T16:20:07.362Z,-2.74
2023-02-18T16:25:15.939Z,-2.81
2023-02-18T16:30:25.015Z,-2.87
2023-02-18T16:35:47.507Z,-2.88
2023-02-18T16:40:55.577Z,-2.84
2023-02-18T16:46:19.549Z,-2.88
2023-02-18T16:51:33.283Z,-2.96
2023-02-18T16:56:37.836Z,-3.02
2023-02-18T17:01:47.005Z,-3.04
2023-02-18T17:06:52.753Z,-3.09
2023-02-18T17:11:58.311Z,-3.07
2023-02-18T17:17:02.360Z,-2.99
2023-02-18T17:22:07.351Z,-2.90
2023-02-18T17:27:13.366Z,-2.79
2023-02-18T17:32:18.010Z,-2.68
2023-02-18T17:37:22.700Z,-2.69
2023-02-18T17:42:27.394Z,-2.64
2023-02-18T17:47:31.976Z,-2.44
2023-02-18T17:52:38.579Z,-2.23
2023-02-18T17:57:43.236Z,-2.13
2023-02-18T18:02:47.877Z,-2.01
2023-02-18T18:07:53.083Z,-1.87
2023-02-18T18:12:58.547Z,-1.78
2023-02-18T18:18:03.455Z,-1.70
2023-02-18T18:23:09.630Z,-1.63
2023-02-18T18:28:14.512Z,-1.58
2023-02-18T18:33:20.224Z,-1.43
2023-02-18T18:38:27.065Z,-1.41
2023-02-18T18:43:36.795Z,-1.37
2023-02-18T18:48:41.419Z,-1.30
2023-02-18T18:53:46.275Z,-1.28
2023-02-18T18:58:51.480Z,-1.23
2023-02-18T19:03:57.769Z,-1.19
2023-02-18T19:09:02.442Z,-1.22
2023-02-18T19:14:07.172Z,-1.20
2023-02-18T19:19:13.713Z,-1.23
2023-02-18T19:24:18.374Z,-1.19
2023-02-18T19:29:25.050Z,-1.15
2023-02-18T19:34:29.671Z,-1.12
2023-02-18T19:39:36.247Z,-1.04
2023-02-18T19:44:41.025Z,-1.01
2023-02-18T19:49:45.842Z,-0.97
2023-02-18T19:54:50.573Z,-0.87
2023-02-18T19:59:55.204Z,-0.88
2023-02-18T20:05:05.415Z,-0.83
2023-02-18T20:10:15.013Z,-0.77
2023-02-18T20:15:20.666Z,-0.65
2023-02-18T20:20:25.982Z,-0.62
2023-02-18T20:25:30.623Z,-0.57
2023-02-18T20:30:35.408Z,-0.51
2023-02-18T20:35:40.033Z,-0.49
2023-02-18T20:40:44.628Z,-0.46
2023-02-18T20:45:49.315Z,-0.48
2023-02-18T20:50:53.898Z,-0.52
2023-02-18T20:55:59.474Z,-0.51
2023-02-18T21:01:10.215Z,-0.51
2023-02-18T21:06:17.335Z,-0.49
2023-02-18T21:11:27.489Z,-0.53
2023-02-18T21:16:51.059Z,-0.63
2023-02-18T21:21:55.682Z,-0.50
2023-02-18T21:27:00.438Z,-0.52
2023-02-18T21:32:05.205Z,-0.47
2023-02-18T21:37:11.137Z,-0.49
2023-02-18T21:42:15.200Z,-0.42
2023-02-18T21:47:19.707Z,-0.44
2023-02-18T21:52:27.516Z,-0.43
2023-02-18T21:57:32.100Z,-0.45
2023-02-18T22:02:37.220Z,-0.57
2023-02-18T22:07:43.075Z,-0.63
2023-02-18T22:12:47.721Z,-0.55
2023-02-18T22:17:52.378Z,-0.59
2023-02-18T22:22:56.976Z,-0.62
2023-02-18T22:28:02.417Z,-0.66
2023-02-18T22:33:07.106Z,-0.72
2023-02-18T22:38:11.783Z,-0.71
2023-02-18T22:43:17.275Z,-0.72
2023-02-18T22:48:21.942Z,-0.80
2023-02-18T22:53:26.575Z,-0.91
2023-02-18T22:58:31.349Z,-1.06
2023-02-18T23:03:36.742Z,-1.13
2023-02-18T23:08:42.454Z,-1.33
2023-02-18T23:14:07.852Z,-1.43
2023-02-18T23:19:12.453Z,-1.62
2023-02-18T23:24:17.359Z,-1.68
2023-02-18T23:29:22.678Z,-1.64
2023-02-18T23:34:27.411Z,-1.64
2023-02-18T23:39:32.045Z,-1.58
2023-02-18T23:44:36.711Z,-1.58
2023-02-18T23:49:40.849Z,-1.49
2023-02-18T23:54:45.543Z,-1.44
2023-02-18T23:59:50.207Z,-1.40
